Time;durP1;ratioP1;P1;durP2;ratioP2;P2;SDS_P1;SDS_P2;PMS_P1;PMS_P2;Temp;Humidity;BMP_temperature;BMP_pressure;BME280_temperature;BME280_humidity;BME280_pressure;Samples;Min_cycle;Max_cycle;Signal;HPM_P1;HPM_P2
2023/07/07 00:02:21;;;;;;;5.15;2.60;;;;;;;12.97;75.53;97513.66;5037592;28;20037;-59
2023/07/07 00:04:48;;;;;;;3.85;2.20;;;;;;;12.86;76.45;97510.06;5040082;28;20053;-58
2023/07/07 00:07:15;;;;;;;7.55;2.42;;;;;;;12.67;77.04;97509.69;5045517;28;20052;-57
2023/07/07 00:09:41;;;;;;;9.13;2.60;;;;;;;12.64;77.27;97507.50;5037524;28;20400;-58
2023/07/07 00:12:08;;;;;;;6.68;2.55;;;;;;;12.61;77.67;97511.56;5045757;28;20044;-59
2023/07/07 00:14:35;;;;;;;4.97;2.55;;;;;;;12.58;77.75;97511.25;5042201;28;20045;-59
2023/07/07 00:17:03;;;;;;;5.05;2.60;;;;;;;12.68;77.31;97514.03;5041190;28;20687;-59
2023/07/07 00:19:33;;;;;;;8.00;2.80;;;;;;;12.67;77.39;97511.56;5045204;28;20047;-59
2023/07/07 00:22:06;;;;;;;5.17;2.43;;;;;;;12.64;78.15;97493.09;5039943;28;20033;-58
2023/07/07 00:24:34;;;;;;;5.97;2.50;;;;;;;12.56;78.40;97506.09;5037711;28;20097;-59
2023/07/07 00:27:01;;;;;;;6.63;2.65;;;;;;;12.57;78.04;97499.56;5048474;28;20139;-58
2023/07/07 00:29:27;;;;;;;5.38;2.65;;;;;;;12.56;78.04;97497.94;5049538;28;20131;-59
2023/07/07 00:31:54;;;;;;;5.93;2.42;;;;;;;12.54;79.22;97505.56;5052744;28;20037;-59
2023/07/07 00:34:21;;;;;;;6.05;2.80;;;;;;;12.56;78.46;97513.41;5043040;28;20045;-59
2023/07/07 00:36:47;;;;;;;5.53;2.30;;;;;;;12.72;77.52;97509.72;5043804;28;20443;-57
2023/07/07 00:39:14;;;;;;;8.60;2.60;;;;;;;12.64;77.81;97502.06;5039465;28;20037;-59
2023/07/07 00:41:41;;;;;;;4.85;2.40;;;;;;;12.55;78.36;97501.75;5036704;28;20091;-59
2023/07/07 00:44:10;;;;;;;6.18;2.63;;;;;;;12.44;78.75;97497.31;5048441;28;20431;-59
2023/07/07 00:46:38;;;;;;;6.53;2.97;;;;;;;12.26;79.49;97498.53;5043652;28;20639;-59
2023/07/07 00:49:11;;;;;;;6.57;2.83;;;;;;;12.22;79.84;97501.78;5038828;28;20049;-58
2023/07/07 00:52:01;;;;;;;6.47;2.40;;;;;;;12.13;80.12;97494.38;5040168;28;20594;-58
2023/07/07 00:54:34;;;;;;;5.15;2.35;;;;;;;12.17;80.08;97501.72;5044753;28;20036;-59
2023/07/07 00:57:03;;;;;;;4.63;2.55;;;;;;;12.17;80.09;97507.16;5039812;28;20060;-59
2023/07/07 00:59:39;;;;;;;7.13;2.90;;;;;;;12.08;80.67;97506.84;5035124;28;20042;-57
2023/07/07 01:02:12;;;;;;;5.45;3.22;;;;;;;12.01;81.16;97505.38;5052120;28;20067;-56
2023/07/07 01:04:48;;;;;;;6.45;2.60;;;;;;;11.99;81.43;97510.25;5044960;28;20064;-56
2023/07/07 01:07:22;;;;;;;5.28;2.60;;;;;;;12.08;80.57;97508.72;5044155;28;20048;-58
2023/07/07 01:09:48;;;;;;;5.72;2.55;;;;;;;12.08;80.66;97514.97;5047898;28;20523;-58
2023/07/07 01:12:15;;;;;;;5.60;2.65;;;;;;;12.00;81.43;97517.28;5022824;28;20049;-57
2023/07/07 01:14:43;;;;;;;5.88;2.88;;;;;;;11.93;81.38;97523.75;5038984;28;20072;-59
2023/07/07 01:17:19;;;;;;;7.97;2.95;;;;;;;11.94;80.94;97513.75;5044916;28;20051;-59
2023/07/07 01:19:56;;;;;;;5.15;3.10;;;;;;;12.02;80.85;97526.00;5041385;28;20072;-59
2023/07/07 01:22:47;;;;;;;6.97;2.40;;;;;;;12.03;81.06;97525.75;5051106;28;20048;-59
2023/07/07 01:25:25;;;;;;;5.07;2.17;;;;;;;12.08;80.23;97525.81;5047188;28;20041;-59
2023/07/07 01:28:08;;;;;;;7.32;2.35;;;;;;;12.23;79.09;97525.13;5041822;28;20043;-59
2023/07/07 01:30:36;;;;;;;4.70;2.38;;;;;;;12.19;79.21;97528.63;5048909;28;20137;-59
2023/07/07 01:33:07;;;;;;;3.95;2.20;;;;;;;12.27;79.28;97525.44;5045531;28;20065;-59
2023/07/07 01:35:34;;;;;;;;;;;;;;;12.02;80.66;97518.66;5037931;28;20123;-59
2023/07/07 01:38:02;;;;;;;6.97;2.85;;;;;;;12.03;80.14;97522.22;5024069;28;19920;-57
2023/07/07 01:40:42;;;;;;;5.18;2.97;;;;;;;12.01;80.19;97519.75;5049419;28;20050;-58
2023/07/07 01:43:24;;;;;;;4.63;2.42;;;;;;;11.92;80.73;97521.31;5034391;28;20053;-58
2023/07/07 01:46:05;;;;;;;4.45;2.50;;;;;;;11.81;81.63;97523.94;5045262;28;20447;-59
2023/07/07 01:48:46;;;;;;;4.90;2.80;;;;;;;11.77;82.10;97517.38;5037347;28;20072;-59
2023/07/07 01:51:16;;;;;;;5.55;2.63;;;;;;;11.89;81.28;97521.81;5044905;28;20052;-59
2023/07/07 01:53:45;;;;;;;6.07;2.70;;;;;;;11.83;81.84;97516.34;5032191;28;20051;-59
2023/07/07 01:56:14;;;;;;;7.35;2.53;;;;;;;11.92;80.83;97516.72;5031025;28;20040;-59
2023/07/07 01:58:42;;;;;;;5.03;2.38;;;;;;;11.88;80.90;97512.88;5037508;28;20104;-59
2023/07/07 02:01:10;;;;;;;5.30;2.80;;;;;;;11.74;81.74;97508.91;5041550;28;20041;-58
2023/07/07 02:03:36;;;;;;;5.38;2.85;;;;;;;11.84;81.35;97514.47;5032845;28;20043;-57
2023/07/07 02:06:03;;;;;;;4.50;2.60;;;;;;;11.67;82.02;97509.94;5037484;28;20052;-59
2023/07/07 02:08:29;;;;;;;4.70;2.75;;;;;;;11.74;81.51;97519.75;5035611;28;20095;-57
2023/07/07 02:10:56;;;;;;;7.45;3.35;;;;;;;11.71;81.67;97521.09;5042319;28;20665;-58
2023/07/07 02:13:23;;;;;;;5.25;2.38;;;;;;;11.77;81.00;97514.66;5041538;28;20045;-58
2023/07/07 02:15:51;;;;;;;4.90;2.65;;;;;;;11.68;81.73;97508.88;5042983;28;20044;-57
2023/07/07 02:18:19;;;;;;;6.45;2.75;;;;;;;11.86;80.64;97508.78;5040065;28;20115;-59
2023/07/07 02:20:46;;;;;;;3.38;1.98;;;;;;;11.88;80.40;97510.16;5048218;28;20119;-59
2023/07/07 02:23:13;;;;;;;4.57;2.83;;;;;;;11.45;82.96;97507.28;5046145;28;20037;-59
2023/07/07 02:25:39;;;;;;;5.38;2.42;;;;;;;11.30;83.87;97511.44;5032956;28;20496;-58
2023/07/07 02:28:05;;;;;;;5.32;2.60;;;;;;;11.43;83.37;97510.22;5034297;28;20048;-59
2023/07/07 02:30:34;;;;;;;5.00;2.55;;;;;;;11.57;82.62;97499.81;5036734;28;20047;-59
2023/07/07 02:33:01;;;;;;;6.28;2.90;;;;;;;11.34;83.72;97502.78;5046716;28;20396;-59
2023/07/07 02:35:27;;;;;;;5.65;2.50;;;;;;;11.27;84.17;97520.09;5041070;28;20048;-59
2023/07/07 02:37:55;;;;;;;4.80;2.78;;;;;;;11.50;82.89;97515.44;5046953;28;20041;-59
2023/07/07 02:40:22;;;;;;;5.80;2.72;;;;;;;11.30;84.29;97516.03;5031944;28;20528;-59
2023/07/07 02:42:48;;;;;;;5.50;2.72;;;;;;;11.36;83.49;97504.22;5037091;28;20120;-59
2023/07/07 02:45:15;;;;;;;6.60;3.13;;;;;;;11.39;83.68;97503.69;5041726;28;20588;-58
2023/07/07 02:47:42;;;;;;;4.50;2.60;;;;;;;11.49;82.79;97502.16;5041751;28;20049;-58
2023/07/07 02:50:09;;;;;;;5.25;2.60;;;;;;;11.73;81.74;97501.84;5041688;28;20541;-59
2023/07/07 02:52:35;;;;;;;6.35;2.75;;;;;;;11.80;80.77;97506.00;5041051;28;20048;-58
2023/07/07 02:55:02;;;;;;;7.88;2.90;;;;;;;11.55;81.84;97518.25;5039306;28;20068;-59
2023/07/07 02:57:29;;;;;;;4.90;2.88;;;;;;;11.52;82.26;97509.78;5040847;28;20036;-59
2023/07/07 02:59:55;;;;;;;6.45;3.10;;;;;;;11.26;83.74;97510.31;5049231;28;20037;-57
2023/07/07 03:02:22;;;;;;;5.88;2.60;;;;;;;11.26;83.75;97518.44;5039633;28;20045;-58
2023/07/07 03:04:49;;;;;;;4.95;2.85;;;;;;;11.11;84.37;97512.84;5042042;28;20115;-59
2023/07/07 03:07:15;;;;;;;6.95;3.00;;;;;;;11.01;85.59;97505.38;5034486;28;20075;-59
2023/07/07 03:09:42;;;;;;;5.25;3.13;;;;;;;11.05;85.19;97509.25;5040363;28;20048;-58
2023/07/07 03:12:09;;;;;;;5.25;2.42;;;;;;;11.17;84.43;97522.69;5033194;28;20076;-59
2023/07/07 03:14:36;;;;;;;5.07;2.90;;;;;;;11.32;83.37;97520.13;5046400;28;20637;-59
2023/07/07 03:17:08;;;;;;;6.85;2.90;;;;;;;11.22;83.89;97525.44;5055492;28;20465;-59
2023/07/07 03:19:42;;;;;;;4.72;2.50;;;;;;;11.15;84.79;97519.38;5037896;28;20647;-59
2023/07/07 03:22:12;;;;;;;4.45;2.30;;;;;;;11.15;84.29;97520.22;5038923;28;20041;-59
2023/07/07 03:24:50;;;;;;;5.07;2.60;;;;;;;11.02;85.06;97515.97;5038704;28;20045;-59
2023/07/07 03:27:28;;;;;;;6.72;2.80;;;;;;;10.94;85.71;97521.84;5036376;28;20107;-58
2023/07/07 03:29:55;;;;;;;6.47;3.00;;;;;;;10.99;85.70;97524.59;5036285;28;20676;-58
2023/07/07 03:32:22;;;;;;;5.25;2.80;;;;;;;11.00;85.78;97523.56;5037495;28;20033;-59
2023/07/07 03:34:56;;;;;;;6.70;3.03;;;;;;;11.03;85.70;97536.56;5039821;28;20041;-59
2023/07/07 03:37:24;;;;;;;4.53;2.65;;;;;;;11.16;84.89;97531.88;5037664;28;20076;-59
2023/07/07 03:39:51;;;;;;;6.70;3.00;;;;;;;11.22;84.39;97532.75;5041668;28;20069;-59
2023/07/07 03:42:19;;;;;;;5.38;3.25;;;;;;;11.21;84.57;97539.25;5039400;28;20037;-59
2023/07/07 03:44:45;;;;;;;5.57;2.95;;;;;;;11.16;85.33;97540.00;5040435;28;20515;-58
2023/07/07 03:47:12;;;;;;;5.53;2.70;;;;;;;11.17;85.05;97542.44;5031935;28;20532;-58
2023/07/07 03:49:39;;;;;;;4.55;2.38;;;;;;;11.15;85.31;97543.78;5032066;28;20046;-59
2023/07/07 03:52:07;;;;;;;5.95;3.00;;;;;;;11.19;84.77;97537.63;5046193;28;20045;-59
2023/07/07 03:54:34;;;;;;;8.13;3.38;;;;;;;11.15;85.37;97543.78;5034257;28;20075;-59
2023/07/07 03:57:01;;;;;;;5.63;3.08;;;;;;;11.12;85.59;97549.69;5033632;28;20051;-59
2023/07/07 03:59:28;;;;;;;5.25;2.90;;;;;;;11.21;85.28;97550.91;5041430;28;20120;-59
2023/07/07 04:01:54;;;;;;;5.40;3.10;;;;;;;11.27;84.75;97551.78;5041325;28;20037;-59
2023/07/07 04:04:21;;;;;;;4.50;2.70;;;;;;;11.44;84.25;97557.16;5043298;28;20525;-59
2023/07/07 04:06:47;;;;;;;7.10;3.05;;;;;;;11.54;83.46;97551.03;5041948;28;20076;-57
2023/07/07 04:09:14;;;;;;;6.15;3.03;;;;;;;11.54;83.41;97545.59;5033159;28;20044;-57
2023/07/07 04:11:40;;;;;;;4.95;2.80;;;;;;;11.58;83.25;97549.44;5043538;28;20742;-59
2023/07/07 04:14:07;;;;;;;5.07;3.15;;;;;;;11.62;83.27;97547.03;5035719;28;20041;-57
2023/07/07 04:16:34;;;;;;;5.50;2.80;;;;;;;11.64;82.64;97544.91;5033084;28;20067;-57
2023/07/07 04:19:00;;;;;;;4.05;2.45;;;;;;;11.65;83.41;97544.63;5042152;28;20099;-59
2023/07/07 04:21:29;;;;;;;6.18;2.97;;;;;;;11.63;83.01;97541.38;5031936;28;20070;-58
2023/07/07 04:23:58;;;;;;;6.97;3.13;;;;;;;11.65;83.29;97543.81;5028761;28;20059;-56
2023/07/07 04:26:27;;;;;;;6.80;3.20;;;;;;;11.64;83.27;97547.63;5044994;28;21388;-59
2023/07/07 04:28:54;;;;;;;5.60;2.88;;;;;;;11.66;83.06;97545.47;5040979;28;20468;-59
2023/07/07 04:31:25;;;;;;;5.97;2.90;;;;;;;11.65;82.96;97543.81;5042479;28;20042;-59
2023/07/07 04:33:53;;;;;;;6.30;2.85;;;;;;;11.82;82.82;97547.25;5039764;28;20041;-59
2023/07/07 04:36:21;;;;;;;8.10;3.08;;;;;;;11.92;82.55;97543.84;5044845;28;20875;-59
2023/07/07 04:38:48;;;;;;;5.68;2.85;;;;;;;12.00;82.67;97550.69;5034793;28;20045;-57
2023/07/07 04:41:23;;;;;;;7.20;2.88;;;;;;;12.06;82.02;97546.16;5045636;28;20105;-59
2023/07/07 04:43:52;;;;;;;5.43;2.97;;;;;;;12.06;82.25;97555.09;5034455;28;20510;-59
2023/07/07 04:46:29;;;;;;;5.25;2.70;;;;;;;12.07;82.26;97551.34;5038013;28;20125;-58
2023/07/07 04:48:55;;;;;;;7.40;2.65;;;;;;;12.15;81.98;97560.91;5041496;28;20459;-58
2023/07/07 04:51:23;;;;;;;5.10;2.38;;;;;;;12.19;82.21;97555.75;5044591;28;20040;-58
2023/07/07 04:53:50;;;;;;;5.40;2.88;;;;;;;12.26;81.39;97566.41;5031818;28;20563;-57
2023/07/07 04:56:20;;;;;;;6.40;3.47;;;;;;;12.36;81.41;97561.88;5040468;28;20146;-59
2023/07/07 04:58:51;;;;;;;6.90;3.25;;;;;;;12.49;80.83;97552.50;5031049;28;20037;-59
2023/07/07 05:01:24;;;;;;;4.90;2.50;;;;;;;12.63;80.98;97551.25;5028995;28;20033;-59
2023/07/07 05:03:53;;;;;;;8.73;2.70;;;;;;;12.79;79.30;97555.66;5043257;28;20048;-59
2023/07/07 05:06:21;;;;;;;7.10;2.92;;;;;;;12.87;80.20;97559.81;5037928;28;20113;-57
2023/07/07 05:08:48;;;;;;;6.50;2.95;;;;;;;13.00;79.34;97562.06;5033667;28;20033;-59
2023/07/07 05:11:17;;;;;;;6.05;2.60;;;;;;;13.18;78.03;97565.41;5048565;28;20514;-59
2023/07/07 05:13:48;;;;;;;6.13;2.72;;;;;;;13.35;77.49;97559.78;5040623;28;20048;-62
2023/07/07 05:16:19;;;;;;;6.75;2.85;;;;;;;13.44;77.01;97559.25;5042374;28;20037;-57
2023/07/07 05:18:45;;;;;;;5.80;2.33;;;;;;;13.65;76.12;97554.75;5036949;28;20075;-57
2023/07/07 05:21:14;;;;;;;5.50;2.80;;;;;;;13.81;75.52;97558.31;5036308;28;20037;-61
2023/07/07 05:23:41;;;;;;;6.28;2.60;;;;;;;13.90;75.86;97559.44;5037180;28;20510;-59
2023/07/07 05:26:07;;;;;;;7.00;2.28;;;;;;;14.01;76.01;97556.75;5036118;28;20071;-56
2023/07/07 05:28:35;;;;;;;6.78;3.13;;;;;;;14.11;75.65;97559.47;5030652;28;20054;-61
2023/07/07 05:31:01;;;;;;;7.70;3.05;;;;;;;14.28;75.02;97561.13;5049368;28;20094;-59
2023/07/07 05:33:28;;;;;;;6.03;3.10;;;;;;;14.43;74.26;97566.59;5043976;28;20045;-59
2023/07/07 05:36:00;;;;;;;6.07;2.80;;;;;;;14.60;73.68;97562.78;5043806;28;20123;-59
2023/07/07 05:38:27;;;;;;;4.70;2.57;;;;;;;14.73;74.20;97564.09;5032130;28;20140;-61
2023/07/07 05:40:55;;;;;;;5.35;2.50;;;;;;;14.93;73.18;97559.75;5045059;28;20284;-59
2023/07/07 05:43:23;;;;;;;7.53;2.67;;;;;;;15.11;72.22;97561.03;5043315;28;20063;-57
2023/07/07 05:46:01;;;;;;;5.93;3.00;;;;;;;15.28;72.10;97563.47;5036051;28;20051;-56
2023/07/07 05:48:28;;;;;;;4.97;2.70;;;;;;;15.44;70.82;97572.41;5037750;28;20537;-59
2023/07/07 05:50:57;;;;;;;4.95;2.67;;;;;;;15.58;70.56;97569.91;5030523;28;20124;-60
2023/07/07 05:53:26;;;;;;;4.83;2.50;;;;;;;15.71;69.23;97564.94;5032644;28;20041;-60
2023/07/07 05:56:03;;;;;;;4.18;2.20;;;;;;;15.83;68.41;97568.13;5034295;28;20038;-61
2023/07/07 05:58:31;;;;;;;5.68;2.80;;;;;;;15.99;67.85;97576.25;5034405;28;20045;-58
2023/07/07 06:00:57;;;;;;;8.10;3.22;;;;;;;16.11;67.91;97578.66;5033411;28;20042;-61
2023/07/07 06:03:24;;;;;;;6.07;2.47;;;;;;;16.40;65.43;97572.41;5031793;28;20053;-60
2023/07/07 06:05:51;;;;;;;6.05;2.70;;;;;;;16.78;63.58;97580.03;5032336;28;20044;-60
2023/07/07 06:08:17;;;;;;;7.05;2.42;;;;;;;17.09;60.73;97578.94;5030121;28;20635;-58
2023/07/07 06:10:51;;;;;;;5.68;2.83;;;;;;;17.36;60.03;97572.09;5033473;28;21877;-58
2023/07/07 06:13:18;;;;;;;6.82;2.90;;;;;;;17.52;60.79;97576.28;5029050;28;20041;-60
2023/07/07 06:15:45;;;;;;;7.47;3.33;;;;;;;17.66;59.77;97575.56;5029587;28;20053;-61
2023/07/07 06:18:11;;;;;;;6.53;2.72;;;;;;;17.67;58.77;97575.28;5032187;28;20492;-60
2023/07/07 06:20:38;;;;;;;5.43;2.40;;;;;;;17.74;58.16;97583.13;5034630;28;20449;-59
2023/07/07 06:23:08;;;;;;;4.57;2.10;;;;;;;17.86;57.96;97576.38;5037240;28;20408;-57
2023/07/07 06:25:34;;;;;;;9.32;2.75;;;;;;;17.92;57.72;97584.22;5037938;28;20051;-58
2023/07/07 06:28:01;;;;;;;8.32;2.53;;;;;;;18.09;57.38;97576.66;5033283;28;20120;-61
2023/07/07 06:30:28;;;;;;;4.78;2.30;;;;;;;18.23;57.35;97582.19;5040731;28;20041;-60
2023/07/07 06:32:54;;;;;;;5.65;2.30;;;;;;;18.33;56.29;97585.59;5030076;28;20052;-60
2023/07/07 06:35:21;;;;;;;6.43;2.78;;;;;;;18.46;54.46;97585.94;5031146;28;20098;-57
2023/07/07 06:37:47;;;;;;;8.43;2.80;;;;;;;18.65;53.98;97583.16;5037878;28;20090;-61
2023/07/07 06:40:14;;;;;;;6.97;2.85;;;;;;;18.88;54.16;97588.00;5035750;28;20116;-61
2023/07/07 06:42:41;;;;;;;5.40;2.60;;;;;;;19.07;53.77;97597.03;5037515;28;20064;-60
2023/07/07 06:45:11;;;;;;;8.17;3.40;;;;;;;19.24;52.71;97595.63;5035805;28;20037;-61
2023/07/07 06:47:38;;;;;;;5.30;2.80;;;;;;;19.35;51.54;97588.81;5025182;28;20300;-62
2023/07/07 06:50:05;;;;;;;7.80;2.60;;;;;;;19.44;52.64;97594.41;5029351;28;20536;-58
2023/07/07 06:52:32;;;;;;;7.57;3.45;;;;;;;19.65;51.94;97602.25;5028374;28;20116;-60
2023/07/07 06:54:59;;;;;;;6.68;2.67;;;;;;;19.82;53.31;97606.28;5027955;28;20041;-60
2023/07/07 06:57:25;;;;;;;7.35;2.92;;;;;;;19.92;50.95;97613.50;5032450;28;20673;-61
2023/07/07 06:59:52;;;;;;;5.80;3.00;;;;;;;19.99;50.71;97613.94;5034670;28;20033;-61
2023/07/07 07:02:18;;;;;;;6.13;3.22;;;;;;;20.00;50.12;97615.53;5039184;28;20040;-59
2023/07/07 07:04:45;;;;;;;5.25;3.10;;;;;;;20.04;50.46;97616.56;5038714;28;20036;-59
2023/07/07 07:07:11;;;;;;;7.00;3.10;;;;;;;20.04;50.12;97624.00;5031783;28;20037;-60
2023/07/07 07:09:38;;;;;;;6.57;2.95;;;;;;;20.04;49.90;97622.06;5038106;28;20045;-60
2023/07/07 07:12:05;;;;;;;8.02;2.75;;;;;;;20.11;50.06;97618.88;5034586;28;20041;-59
2023/07/07 07:14:31;;;;;;;6.38;2.63;;;;;;;20.17;49.84;97616.84;5045785;28;20696;-60
2023/07/07 07:16:58;;;;;;;7.22;3.13;;;;;;;20.22;50.18;97612.03;5039054;28;20638;-58
2023/07/07 07:19:24;;;;;;;9.98;3.08;;;;;;;20.34;49.27;97616.19;5050944;28;20032;-60
2023/07/07 07:21:51;;;;;;;7.18;3.15;;;;;;;20.39;49.69;97618.81;5040410;28;20044;-60
2023/07/07 07:24:19;;;;;;;7.13;3.33;;;;;;;20.47;49.77;97620.81;5047567;28;20091;-59
2023/07/07 07:26:45;;;;;;;6.95;3.00;;;;;;;20.46;49.80;97615.63;5037244;28;20052;-57
2023/07/07 07:29:14;;;;;;;7.78;3.30;;;;;;;20.53;49.37;97618.78;5030855;28;20053;-60
2023/07/07 07:31:43;;;;;;;6.28;3.00;;;;;;;20.67;49.24;97618.69;5030235;28;20041;-59
2023/07/07 07:34:28;;;;;;;5.97;2.92;;;;;;;20.76;48.67;97614.09;5039701;28;20040;-60
2023/07/07 07:36:56;;;;;;;7.18;2.78;;;;;;;20.87;48.59;97616.56;5044966;28;20508;-60
2023/07/07 07:39:24;;;;;;;6.28;3.13;;;;;;;20.92;48.15;97614.53;5039610;28;20065;-60
2023/07/07 07:41:53;;;;;;;7.18;3.33;;;;;;;21.02;48.08;97601.63;5038136;28;20043;-60
2023/07/07 07:44:22;;;;;;;6.78;2.67;;;;;;;21.13;47.82;97605.75;5040866;28;20038;-60
2023/07/07 07:46:51;;;;;;;8.35;3.30;;;;;;;21.16;47.58;97604.31;5041668;28;20049;-59
2023/07/07 07:49:17;;;;;;;5.82;3.05;;;;;;;21.43;47.39;97605.22;5038137;28;20053;-60
2023/07/07 07:51:44;;;;;;;6.63;3.13;;;;;;;21.53;46.68;97606.88;5032375;28;20049;-59
2023/07/07 07:54:12;;;;;;;8.63;3.28;;;;;;;21.56;46.58;97607.03;5044414;28;20043;-58
2023/07/07 07:56:39;;;;;;;6.03;2.85;;;;;;;21.63;47.05;97603.03;5037038;28;20277;-59
2023/07/07 07:59:07;;;;;;;7.10;3.20;;;;;;;21.74;46.59;97612.63;5059085;28;20056;-60
2023/07/07 08:01:34;;;;;;;7.28;3.45;;;;;;;21.92;46.11;97609.91;5038726;28;20518;-60
2023/07/07 08:04:02;;;;;;;6.93;3.20;;;;;;;21.96;45.98;97617.22;5043331;28;20045;-60
2023/07/07 08:06:29;;;;;;;6.90;3.58;;;;;;;;;;5051546;28;20090;-60
2023/07/07 08:08:56;;;;;;;8.05;3.63;;;;;;;22.08;45.77;97611.09;5048783;28;20582;-60
2023/07/07 08:11:47;;;;;;;6.90;3.30;;;;;;;22.24;45.99;97612.56;5051063;28;20634;-60
2023/07/07 08:14:19;;;;;;;6.03;3.22;;;;;;;22.28;45.74;97603.31;5041261;28;20603;-60
2023/07/07 08:16:47;;;;;;;7.90;3.78;;;;;;;22.52;45.61;97606.72;5039659;28;20559;-60
2023/07/07 08:19:14;;;;;;;8.45;3.05;;;;;;;22.61;45.78;97604.81;5042871;28;20043;-60
2023/07/07 08:21:45;;;;;;;7.40;3.47;;;;;;;22.69;44.83;97611.44;5048451;28;20052;-60
2023/07/07 08:24:12;;;;;;;7.30;3.67;;;;;;;22.76;45.26;97603.47;5047988;28;20038;-59
2023/07/07 08:26:38;;;;;;;12.02;5.28;;;;;;;22.85;44.75;97604.28;5047719;28;20051;-60
2023/07/07 08:29:07;;;;;;;7.10;3.47;;;;;;;23.00;45.19;97611.22;5052136;28;20041;-58
2023/07/07 08:31:34;;;;;;;6.43;3.13;;;;;;;23.26;44.59;97604.00;5032872;28;20527;-60
2023/07/07 08:34:03;;;;;;;6.13;3.40;;;;;;;23.24;43.72;97604.34;5055872;28;20064;-58
2023/07/07 08:36:30;;;;;;;6.65;2.97;;;;;;;23.33;43.79;97607.06;5043642;28;20047;-60
2023/07/07 08:39:15;;;;;;;9.40;3.83;;;;;;;23.46;43.35;97602.50;5051611;28;20100;-58
2023/07/07 08:41:48;;;;;;;5.90;3.20;;;;;;;23.47;42.56;97606.88;5046670;28;20041;-60
2023/07/07 08:44:18;;;;;;;8.45;3.85;;;;;;;23.55;43.76;97604.41;5039505;28;20467;-60
2023/07/07 08:47:12;;;;;;;6.05;3.38;;;;;;;23.59;42.70;97599.84;5034532;28;20559;-60
2023/07/07 08:49:49;;;;;;;9.23;3.30;;;;;;;23.70;42.24;97606.59;5032472;28;20041;-60
2023/07/07 08:52:45;;;;;;;7.43;3.35;;;;;;;23.80;42.86;97607.38;5041826;28;20063;-59
2023/07/07 08:55:43;;;;;;;6.82;4.05;;;;;;;24.00;42.01;97603.81;5046617;28;20052;-60
2023/07/07 08:58:23;;;;;;;6.45;3.45;;;;;;;24.06;42.30;97598.09;5048942;28;20032;-59
2023/07/07 09:01:21;;;;;;;7.30;3.67;;;;;;;24.23;41.68;97606.31;5049152;28;20034;-58
2023/07/07 09:04:03;;;;;;;9.68;4.00;;;;;;;24.38;40.84;97595.75;5046599;28;20033;-59
2023/07/07 09:06:30;;;;;;;6.93;3.97;;;;;;;24.45;40.96;97601.56;5045918;28;20634;-60
2023/07/07 09:09:14;;;;;;;6.25;3.20;;;;;;;24.35;40.05;97604.72;5046314;28;20570;-59
2023/07/07 09:11:49;;;;;;;6.97;3.90;;;;;;;24.35;39.97;97601.97;5049614;28;20446;-60
2023/07/07 09:14:16;;;;;;;7.60;3.78;;;;;;;24.39;39.74;97605.66;5030684;28;20112;-61
2023/07/07 09:16:44;;;;;;;8.05;4.57;;;;;;;24.47;38.44;97598.47;5049359;28;20072;-60
2023/07/07 09:19:17;;;;;;;6.65;4.05;;;;;;;24.64;37.17;97594.72;5043903;28;20063;-58
2023/07/07 09:21:50;;;;;;;7.80;4.30;;;;;;;24.74;37.61;97587.94;5047325;28;20516;-59
2023/07/07 09:24:30;;;;;;;7.45;4.38;;;;;;;24.79;37.59;97590.50;5050158;28;20488;-56
2023/07/07 09:27:05;;;;;;;7.07;4.10;;;;;;;25.04;37.29;97587.84;5044471;28;20463;-59
2023/07/07 09:29:31;;;;;;;6.68;3.78;;;;;;;25.27;36.29;97579.91;5055350;28;20036;-57
2023/07/07 09:32:02;;;;;;;8.70;4.20;;;;;;;25.39;36.02;97581.88;5048311;28;20037;-57
2023/07/07 09:34:32;;;;;;;10.40;4.80;;;;;;;25.42;35.76;97580.38;5053045;28;20552;-58
2023/07/07 09:37:31;;;;;;;6.28;3.92;;;;;;;25.40;35.31;97579.91;5049570;28;20116;-59
2023/07/07 09:40:06;;;;;;;7.85;4.28;;;;;;;25.36;35.34;97576.22;5049056;28;20462;-57
2023/07/07 09:42:48;;;;;;;7.20;4.35;;;;;;;25.40;34.97;97579.91;5042580;28;20067;-58
2023/07/07 09:45:44;;;;;;;8.50;4.50;;;;;;;25.33;35.20;97578.50;5043307;28;20044;-59
2023/07/07 09:48:15;;;;;;;7.03;4.07;;;;;;;25.44;35.11;97581.66;5046971;28;20046;-59
2023/07/07 09:51:02;;;;;;;7.30;4.40;;;;;;;25.41;34.47;97584.31;5041903;28;20119;-59
2023/07/07 09:53:33;;;;;;;8.70;4.10;;;;;;;25.59;34.83;97571.06;5048878;28;20045;-58
2023/07/07 09:56:21;;;;;;;7.43;4.43;;;;;;;25.75;35.11;97578.69;5045051;28;20056;-59
2023/07/07 09:59:06;;;;;;;7.28;4.20;;;;;;;25.75;33.00;97573.94;5044432;28;20052;-60
2023/07/07 10:01:36;;;;;;;8.43;5.13;;;;;;;25.76;31.95;97575.53;5036237;28;20667;-59
2023/07/07 10:04:08;;;;;;;7.57;4.63;;;;;;;25.74;32.83;97568.72;5044642;28;20123;-60
2023/07/07 10:06:41;;;;;;;7.57;4.88;;;;;;;25.64;32.48;97565.28;5034913;28;20052;-59
2023/07/07 10:09:11;;;;;;;8.50;4.45;;;;;;;25.78;33.38;97564.91;5042309;28;20458;-59
2023/07/07 10:11:40;;;;;;;8.05;4.68;;;;;;;26.00;33.23;97561.97;5045784;28;20080;-59
2023/07/07 10:14:12;;;;;;;8.73;4.60;;;;;;;26.21;32.59;97561.81;5035990;28;20037;-59
2023/07/07 10:17:09;;;;;;;10.32;5.30;;;;;;;26.09;32.13;97555.16;5046319;28;20052;-59
2023/07/07 10:19:43;;;;;;;7.72;4.30;;;;;;;26.13;32.65;97560.00;5034960;28;20495;-59
2023/07/07 10:22:14;;;;;;;8.43;4.75;;;;;;;26.34;31.72;97559.84;5033963;28;20037;-58
2023/07/07 10:24:42;;;;;;;9.75;4.65;;;;;;;26.36;32.37;97555.53;5040969;28;20045;-59
2023/07/07 10:27:15;;;;;;;7.85;5.40;;;;;;;26.53;32.35;97566.72;5045939;28;20687;-60
2023/07/07 10:29:42;;;;;;;9.50;4.97;;;;;;;26.49;31.84;97561.88;5034268;28;20037;-59
2023/07/07 10:32:20;;;;;;;8.82;5.00;;;;;;;26.52;31.76;97560.34;5049209;28;20032;-59
2023/07/07 10:34:51;;;;;;;9.07;5.22;;;;;;;26.60;30.50;97556.59;5047670;28;20124;-58
2023/07/07 10:37:27;;;;;;;10.43;5.97;;;;;;;26.56;31.24;97561.25;5041773;28;20056;-59
2023/07/07 10:39:56;;;;;;;8.88;5.30;;;;;;;26.69;30.92;97556.47;5035971;28;20040;-58
2023/07/07 10:42:24;;;;;;;11.35;5.43;;;;;;;26.85;30.45;97562.03;5051751;28;20055;-59
2023/07/07 10:44:52;;;;;;;10.05;6.28;;;;;;;26.96;31.13;97561.53;5037043;28;20128;-57
2023/07/07 10:47:23;;;;;;;8.68;6.10;;;;;;;26.94;30.04;97567.41;5029893;28;20056;-59
2023/07/07 10:49:49;;;;;;;10.23;5.70;;;;;;;26.70;30.38;97555.28;5038674;28;20052;-60
2023/07/07 10:52:38;;;;;;;8.00;5.43;;;;;;;27.05;30.48;97564.16;5045660;28;20068;-60
2023/07/07 10:55:18;;;;;;;8.32;5.07;;;;;;;27.12;30.48;97564.34;5031334;28;20049;-60
2023/07/07 10:57:51;;;;;;;10.00;5.47;;;;;;;27.19;30.85;97558.16;5052905;28;20552;-60
2023/07/07 11:00:45;;;;;;;9.38;5.47;;;;;;;27.24;30.39;97560.66;5046191;28;20037;-59
2023/07/07 11:03:36;;;;;;;8.88;5.45;;;;;;;27.35;30.25;97564.50;5038047;28;20037;-59
2023/07/07 11:06:34;;;;;;;8.75;5.65;;;;;;;27.45;30.06;97554.03;5034518;28;20044;-60
2023/07/07 11:09:19;;;;;;;8.65;5.10;;;;;;;27.72;29.61;97566.22;5056466;28;20075;-60
2023/07/07 11:12:10;;;;;;;9.45;5.28;;;;;;;27.86;28.73;97554.59;5048068;28;20045;-60
2023/07/07 11:14:44;;;;;;;9.02;5.18;;;;;;;27.69;28.89;97561.38;5039454;28;20033;-60
2023/07/07 11:17:20;;;;;;;10.18;5.82;;;;;;;27.79;28.51;97548.88;5044465;28;20116;-60
2023/07/07 11:20:08;;;;;;;10.32;5.32;;;;;;;27.69;28.31;97538.31;5040593;28;20075;-60
2023/07/07 11:22:50;;;;;;;8.43;5.63;;;;;;;27.75;29.12;97546.00;5035028;28;20052;-60
2023/07/07 11:25:41;;;;;;;11.55;5.82;;;;;;;27.94;28.57;97546.41;5042347;28;20036;-60
2023/07/07 11:28:26;;;;;;;9.25;5.90;;;;;;;28.17;27.12;97549.28;5045064;28;20090;-60
2023/07/07 11:31:40;;;;;;;9.82;6.22;;;;;;;28.35;26.63;97538.56;5044730;28;20102;-59
2023/07/07 11:34:07;;;;;;;9.32;5.78;;;;;;;28.23;26.65;97538.69;5033675;28;20135;-58
2023/07/07 11:36:56;;;;;;;8.38;5.03;;;;;;;28.28;28.59;97533.66;5052019;28;20076;-58
2023/07/07 11:39:25;;;;;;;10.90;5.65;;;;;;;28.27;28.03;97547.94;5047428;28;20048;-58
2023/07/07 11:42:26;;;;;;;8.10;5.45;;;;;;;28.18;27.91;97535.00;5048152;28;20050;-57
2023/07/07 11:45:18;;;;;;;10.35;6.00;;;;;;;28.07;28.47;97528.41;5049587;28;20045;-58
2023/07/07 11:48:05;;;;;;;9.73;5.97;;;;;;;27.96;27.60;97532.97;5050072;28;20082;-58
2023/07/07 11:50:34;;;;;;;8.88;5.45;;;;;;;28.10;28.01;97524.09;5056936;28;20114;-59
2023/07/07 11:53:46;;;;;;;11.65;5.85;;;;;;;28.56;27.38;97537.38;5049957;28;20045;-58
2023/07/07 11:56:19;;;;;;;11.25;5.68;;;;;;;28.72;26.86;97523.34;5053509;28;20890;-61